createdAt,value
2019-03-22T00:00:20.946Z,101478.68
2019-03-22T00:02:49.517Z,101479.52
2019-03-22T00:05:16.415Z,101482.02
2019-03-22T00:07:43.728Z,101474.36
2019-03-22T00:10:10.666Z,101472.61
2019-03-22T00:12:37.538Z,101476.39
2019-03-22T00:15:04.396Z,101471.63
2019-03-22T00:17:31.299Z,101477.94
2019-03-22T00:19:58.664Z,101471.52
2019-03-22T00:22:25.911Z,101465.12
2019-03-22T00:24:52.871Z,101466.31
2019-03-22T00:27:20.094Z,101467.09
2019-03-22T00:29:47.368Z,101469.14
2019-03-22T00:32:14.729Z,101469.52
2019-03-22T00:34:41.622Z,101467.36
2019-03-22T00:37:08.797Z,101477.55
2019-03-22T00:39:36.065Z,101474.61
2019-03-22T00:42:02.952Z,101475.34
2019-03-22T00:44:29.968Z,101471.87
2019-03-22T00:46:56.921Z,101474.81
2019-03-22T00:49:24.137Z,101473.16
2019-03-22T00:51:51.023Z,101468.97
2019-03-22T00:54:17.980Z,101462.61
2019-03-22T00:56:44.964Z,101468.92
2019-03-22T00:59:13.211Z,101466.84
2019-03-22T01:01:40.413Z,101460.55
2019-03-22T01:04:07.350Z,101460.61
2019-03-22T01:06:34.227Z,101468.18
2019-03-22T01:09:01.458Z,101460.55
2019-03-22T01:11:30.347Z,101459.78
2019-03-22T01:13:57.497Z,101459.34
2019-03-22T01:16:24.362Z,101454.69
2019-03-22T01:18:51.613Z,101461.02
2019-03-22T01:21:18.857Z,101457.13
2019-03-22T01:23:45.824Z,101454.97
2019-03-22T01:26:13.148Z,101458.38
2019-03-22T01:28:40.027Z,101451.55
2019-03-22T01:31:09.542Z,101461.68
2019-03-22T01:33:36.436Z,101461.19
2019-03-22T01:36:04.010Z,101456.86
2019-03-22T01:38:31.455Z,101449.59
2019-03-22T01:40:58.359Z,101444.85
2019-03-22T01:43:25.494Z,101441.84
2019-03-22T01:45:52.708Z,101442.25
2019-03-22T01:48:19.589Z,101446.48
2019-03-22T01:50:46.496Z,101443.02
2019-03-22T01:53:13.765Z,101445.97
2019-03-22T01:55:40.989Z,101442.56
2019-03-22T01:58:08.268Z,101449.34
2019-03-22T02:00:35.156Z,101453.19
2019-03-22T02:03:02.084Z,101450.68
2019-03-22T02:05:29.023Z,101441.81
2019-03-22T02:07:55.973Z,101450.30
2019-03-22T02:10:22.915Z,101447.64
2019-03-22T02:12:49.810Z,101453.19
2019-03-22T02:15:16.765Z,101451.91
2019-03-22T02:17:43.709Z,101450.06
2019-03-22T02:20:10.872Z,101454.27
2019-03-22T02:22:38.113Z,101450.95
2019-03-22T02:25:04.977Z,101446.31
2019-03-22T02:27:31.872Z,101441.59
2019-03-22T02:29:59.173Z,101439.86
2019-03-22T02:32:26.311Z,101437.67
2019-03-22T02:34:53.192Z,101431.72
2019-03-22T02:37:20.119Z,101435.09
2019-03-22T02:39:47.252Z,101439.32
2019-03-22T02:42:14.420Z,101436.82
2019-03-22T02:44:41.388Z,101430.94
2019-03-22T02:47:08.363Z,101427.50
2019-03-22T02:49:35.653Z,101426.23
2019-03-22T02:52:02.535Z,101424.08
2019-03-22T02:54:29.481Z,101427.02
2019-03-22T02:56:56.454Z,101431.17
2019-03-22T02:59:23.646Z,101435.32
2019-03-22T03:01:50.635Z,101430.61
2019-03-22T03:04:17.985Z,101425.14
2019-03-22T03:06:44.943Z,101428.47
2019-03-22T03:09:12.237Z,101428.02
2019-03-22T03:11:39.148Z,101430.52
2019-03-22T03:14:06.090Z,101435.55
2019-03-22T03:16:32.973Z,101438.92
2019-03-22T03:18:59.862Z,101432.15
2019-03-22T03:21:26.837Z,101427.05
2019-03-22T03:23:53.824Z,101426.16
2019-03-22T03:26:20.766Z,101434.17
2019-03-22T03:28:47.756Z,101434.55
2019-03-22T03:31:14.743Z,101446.02
2019-03-22T03:33:41.719Z,101441.40
2019-03-22T03:36:08.692Z,101435.44
2019-03-22T03:38:35.617Z,101434.06
2019-03-22T03:41:02.845Z,101435.82
2019-03-22T03:43:29.820Z,101430.72
2019-03-22T03:45:56.762Z,101434.00
2019-03-22T03:48:23.708Z,101440.68
2019-03-22T03:50:50.661Z,101438.17
2019-03-22T03:53:17.999Z,101437.88
2019-03-22T03:55:45.433Z,101439.30
2019-03-22T03:58:12.400Z,101434.12
2019-03-22T04:00:39.654Z,101443.80
2019-03-22T04:03:07.666Z,101438.62
2019-03-22T04:05:34.625Z,101434.73
2019-03-22T04:08:01.614Z,101434.63
2019-03-22T04:10:28.590Z,101441.32
2019-03-22T04:12:55.882Z,101438.41
2019-03-22T04:15:22.784Z,101444.83
2019-03-22T04:17:49.764Z,101445.64
2019-03-22T04:20:16.741Z,101440.59
2019-03-22T04:22:43.808Z,101432.87
2019-03-22T04:25:10.761Z,101438.62
2019-03-22T04:27:37.753Z,101442.33
2019-03-22T04:30:04.696Z,101443.25
2019-03-22T04:32:32.115Z,101444.11
2019-03-22T04:35:00.027Z,101443.66
2019-03-22T04:37:27.964Z,101441.50
2019-03-22T04:39:54.939Z,101438.85
2019-03-22T04:42:22.231Z,101432.77
2019-03-22T04:44:49.473Z,101430.86
2019-03-22T04:47:16.430Z,101427.40
2019-03-22T04:49:43.658Z,101427.72
2019-03-22T04:52:10.521Z,101420.03
2019-03-22T04:54:37.785Z,101420.03
2019-03-22T04:57:04.704Z,101428.02
2019-03-22T04:59:31.716Z,101438.30
2019-03-22T05:01:58.912Z,101444.83
2019-03-22T05:04:26.145Z,101445.39
2019-03-22T05:06:53.012Z,101452.30
2019-03-22T05:09:20.256Z,101455.76
2019-03-22T05:11:47.150Z,101464.72
2019-03-22T05:14:14.124Z,101466.73
2019-03-22T05:16:41.046Z,101471.66
2019-03-22T05:19:07.936Z,101475.80
2019-03-22T05:21:34.899Z,101478.34
2019-03-22T05:24:01.808Z,101472.84
2019-03-22T05:26:28.694Z,101474.56
2019-03-22T05:28:56.694Z,101478.40
2019-03-22T05:31:23.558Z,101474.02
2019-03-22T05:33:50.847Z,101467.16
2019-03-22T05:36:18.199Z,101469.64
2019-03-22T05:38:46.578Z,101470.02
2019-03-22T05:41:13.831Z,101466.19
2019-03-22T05:43:40.821Z,101458.96
2019-03-22T05:46:08.234Z,101453.80
2019-03-22T05:48:35.490Z,101451.27
2019-03-22T05:51:02.836Z,101456.59
2019-03-22T05:53:29.765Z,101465.23
2019-03-22T05:55:56.673Z,101461.98
2019-03-22T05:58:23.549Z,101467.78
2019-03-22T06:00:50.514Z,101469.34
2019-03-22T06:03:17.472Z,101476.38
2019-03-22T06:05:44.718Z,101477.50
2019-03-22T06:08:11.978Z,101474.28
2019-03-22T06:10:39.241Z,101481.91
2019-03-22T06:13:06.172Z,101484.45
2019-03-22T06:15:33.425Z,101493.85
2019-03-22T06:18:00.672Z,101499.48
2019-03-22T06:20:28.028Z,101497.16
2019-03-22T06:22:55.193Z,101494.83
2019-03-22T06:25:22.123Z,101497.11
2019-03-22T06:27:49.087Z,101501.33
2019-03-22T06:30:16.053Z,101499.69
2019-03-22T06:32:43.001Z,101509.98
2019-03-22T06:35:10.202Z,101512.64
2019-03-22T06:37:37.074Z,101511.41
2019-03-22T06:40:04.050Z,101513.64
2019-03-22T06:42:30.932Z,101519.30
2019-03-22T06:44:58.203Z,101529.72
2019-03-22T06:47:25.151Z,101531.18
2019-03-22T06:49:52.058Z,101534.29
2019-03-22T06:52:19.022Z,101525.47
2019-03-22T06:54:46.289Z,101524.83
2019-03-22T06:57:13.175Z,101515.22
2019-03-22T06:59:40.138Z,101514.13
2019-03-22T07:02:07.422Z,101513.27
2019-03-22T07:04:34.581Z,101512.89
2019-03-22T07:07:01.957Z,101519.29
2019-03-22T07:09:29.202Z,101529.53
2019-03-22T07:11:56.439Z,101530.08
2019-03-22T07:14:23.376Z,101532.39
2019-03-22T07:16:50.245Z,101529.09
2019-03-22T07:19:17.115Z,101523.18
2019-03-22T07:21:44.161Z,101518.15
2019-03-22T07:24:11.112Z,101523.23
2019-03-22T07:26:38.065Z,101527.47
2019-03-22T07:29:04.940Z,101525.83
2019-03-22T07:31:32.120Z,101530.12
2019-03-22T07:33:59.374Z,101531.42
2019-03-22T07:36:26.288Z,101534.86
2019-03-22T07:38:53.245Z,101533.22
2019-03-22T07:41:20.502Z,101538.78
2019-03-22T07:43:47.660Z,101541.34
2019-03-22T07:46:14.632Z,101538.37
2019-03-22T07:48:41.966Z,101533.28
2019-03-22T07:51:08.934Z,101531.16
2019-03-22T07:53:35.872Z,101531.56
2019-03-22T07:56:02.748Z,101451.91
2019-03-22T07:58:29.689Z,101515.81
2019-03-22T08:00:57.553Z,101513.25
2019-03-22T08:03:24.512Z,101514.08
2019-03-22T08:05:51.751Z,101513.27
2019-03-22T08:08:19.062Z,101513.25
2019-03-22T08:10:46.442Z,101514.11
2019-03-22T08:13:13.387Z,101511.96
2019-03-22T08:15:40.326Z,101518.37
2019-03-22T08:18:07.550Z,101523.05
2019-03-22T08:20:34.822Z,101517.94
2019-03-22T08:23:01.788Z,101514.95
2019-03-22T08:25:29.013Z,101523.08
2019-03-22T08:27:56.316Z,101519.66
2019-03-22T08:30:23.232Z,101527.77
2019-03-22T08:32:50.592Z,101528.17
2019-03-22T08:35:18.043Z,101528.59
2019-03-22T08:37:52.381Z,101529.43
2019-03-22T08:40:13.569Z,101535.83
2019-03-22T08:42:40.493Z,101542.22
2019-03-22T08:45:07.373Z,101543.06
2019-03-22T08:47:34.875Z,101548.19
2019-03-22T08:50:01.865Z,101543.06
2019-03-22T08:52:29.341Z,101543.52
2019-03-22T08:54:57.353Z,101538.83
2019-03-22T08:57:25.181Z,101536.67
2019-03-22T08:59:52.211Z,101537.95
2019-03-22T09:02:19.441Z,101527.27
2019-03-22T09:04:46.345Z,101523.80
2019-03-22T09:07:13.270Z,101531.02
2019-03-22T09:09:41.760Z,101537.39
2019-03-22T09:12:09.030Z,101527.98
2019-03-22T09:14:35.968Z,101526.66
2019-03-22T09:17:02.924Z,101524.13
2019-03-22T09:19:30.142Z,101530.49
2019-03-22T09:21:59.532Z,101533.44
2019-03-22T09:24:38.323Z,101534.26
2019-03-22T09:26:54.183Z,101535.09
2019-03-22T09:29:21.137Z,101538.91
2019-03-22T09:31:48.417Z,101536.77
2019-03-22T09:34:16.048Z,101539.31
2019-03-22T09:36:43.310Z,101533.76
2019-03-22T09:39:10.504Z,101530.31
2019-03-22T09:41:37.389Z,101529.03
2019-03-22T09:44:04.325Z,101522.19
2019-03-22T09:46:31.196Z,101517.49
2019-03-22T09:48:58.254Z,101511.06
2019-03-22T09:51:25.217Z,101513.62
2019-03-22T09:53:52.190Z,101509.75
2019-03-22T09:56:19.148Z,101507.15
2019-03-22T09:58:46.477Z,101497.74
2019-03-22T10:01:23.190Z,101497.34
2019-03-22T10:03:42.724Z,101498.58
2019-03-22T10:06:09.820Z,101491.32
2019-03-22T10:08:36.775Z,101488.33
2019-03-22T10:11:04.196Z,101488.72
2019-03-22T10:13:31.135Z,101484.86
2019-03-22T10:15:58.366Z,101485.70
2019-03-22T10:18:25.373Z,101486.54
2019-03-22T10:20:52.293Z,101483.10
2019-03-22T10:23:25.361Z,101474.19
2019-03-22T10:25:52.636Z,101469.48
2019-03-22T10:28:19.549Z,101461.80
2019-03-22T10:30:46.566Z,101459.21
2019-03-22T10:33:22.573Z,101457.50
2019-03-22T10:35:42.100Z,101458.75
2019-03-22T10:38:15.930Z,101457.91
2019-03-22T10:40:37.947Z,101455.73
2019-03-22T10:43:05.108Z,101453.19
2019-03-22T10:45:32.119Z,101443.78
2019-03-22T10:47:59.352Z,101443.30
2019-03-22T10:50:26.548Z,101445.03
2019-03-22T10:52:53.926Z,101445.91
2019-03-22T10:55:29.634Z,101437.74
2019-03-22T10:57:49.457Z,101444.12
2019-03-22T11:00:16.698Z,101438.58
2019-03-22T11:02:43.942Z,101436.87
2019-03-22T11:05:10.906Z,101427.02
2019-03-22T11:07:38.152Z,101431.31
2019-03-22T11:10:05.140Z,101426.63
2019-03-22T11:12:32.096Z,101419.77
2019-03-22T11:14:59.089Z,101412.96
2019-03-22T11:17:25.970Z,101410.78
2019-03-22T11:19:52.937Z,101410.28
2019-03-22T11:22:19.865Z,101411.52
2019-03-22T11:24:46.842Z,101407.25
2019-03-22T11:27:13.906Z,101407.27
2019-03-22T11:29:40.828Z,101403.83
2019-03-22T11:32:12.559Z,101400.83
2019-03-22T11:34:36.578Z,101399.51
2019-03-22T11:37:03.464Z,101398.63
2019-03-22T11:39:30.451Z,101389.17
2019-03-22T11:41:57.736Z,101388.66
2019-03-22T11:44:24.601Z,101385.20
2019-03-22T11:46:51.501Z,101384.72
2019-03-22T11:49:18.706Z,101375.70
2019-03-22T11:51:47.344Z,101371.41
2019-03-22T11:54:14.321Z,101379.06
2019-03-22T11:56:41.313Z,101374.74
2019-03-22T11:59:08.208Z,101371.27
2019-03-22T12:01:35.211Z,101367.80
2019-03-22T12:04:02.153Z,101361.77
2019-03-22T12:06:29.115Z,101363.02
2019-03-22T12:08:56.375Z,101359.52
2019-03-22T12:11:23.662Z,101356.92
2019-03-22T12:13:50.622Z,101346.67
2019-03-22T12:16:17.853Z,101346.22
2019-03-22T12:18:44.817Z,101341.97
2019-03-22T12:21:11.790Z,101338.09
2019-03-22T12:23:38.988Z,101334.63
2019-03-22T12:26:06.548Z,101332.89
2019-03-22T12:28:33.617Z,101326.45
2019-03-22T12:31:01.003Z,101321.72
2019-03-22T12:33:29.863Z,101319.55
2019-03-22T12:35:57.092Z,101315.23
2019-03-22T12:38:24.238Z,101306.22
2019-03-22T12:40:51.242Z,101302.77
2019-03-22T12:43:18.552Z,101301.03
2019-03-22T12:45:45.569Z,101298.47
2019-03-22T12:48:12.443Z,101295.02
2019-03-22T12:50:39.583Z,101285.17
2019-03-22T12:53:06.457Z,101280.02
2019-03-22T12:55:33.345Z,101283.84
2019-03-22T12:58:00.336Z,101281.67
2019-03-22T13:00:27.293Z,101277.82
2019-03-22T13:02:54.281Z,101280.34
2019-03-22T13:05:21.305Z,101282.85
2019-03-22T13:07:48.286Z,101278.95
2019-03-22T13:10:15.598Z,101279.38
2019-03-22T13:12:42.916Z,101277.21
2019-03-22T13:15:10.203Z,101274.67
2019-03-22T13:17:37.431Z,101272.95
2019-03-22T13:20:04.397Z,101264.80
2019-03-22T13:22:31.348Z,101255.38
2019-03-22T13:24:58.241Z,101254.95
2019-03-22T13:27:25.277Z,101249.35
2019-03-22T13:29:52.527Z,101245.05
2019-03-22T13:32:19.780Z,101236.09
2019-03-22T13:34:46.646Z,101232.29
2019-03-22T13:37:13.906Z,101230.52
2019-03-22T13:39:41.213Z,101230.47
2019-03-22T13:42:08.553Z,101226.13
2019-03-22T13:44:36.889Z,101220.53
2019-03-22T13:47:03.773Z,101217.94
2019-03-22T13:49:31.044Z,101213.20
2019-03-22T13:51:58.238Z,101213.14
2019-03-22T13:54:25.673Z,101213.14
2019-03-22T13:56:52.986Z,101210.17
2019-03-22T13:59:20.323Z,101210.97
2019-03-22T14:01:48.158Z,101203.66
2019-03-22T14:04:15.433Z,101203.20
2019-03-22T14:06:42.693Z,101189.92
2019-03-22T14:09:09.680Z,101195.86
2019-03-22T14:11:36.996Z,101195.44
2019-03-22T14:14:03.874Z,101192.41
2019-03-22T14:16:31.092Z,101188.92
2019-03-22T14:18:59.991Z,101188.42
2019-03-22T14:21:26.923Z,101176.01
2019-03-22T14:23:53.801Z,101174.27
2019-03-22T14:26:21.082Z,101172.48
2019-03-22T14:28:47.966Z,101174.23
2019-03-22T14:31:15.384Z,101165.63
2019-03-22T14:33:42.363Z,101159.20
2019-03-22T14:36:09.318Z,101163.89
2019-03-22T14:38:36.563Z,101161.72
2019-03-22T14:41:04.513Z,101157.83
2019-03-22T14:43:31.690Z,101156.58
2019-03-22T14:45:58.946Z,101150.58
2019-03-22T14:48:26.199Z,101144.98
2019-03-22T14:50:54.696Z,101137.66
2019-03-22T14:53:21.956Z,101135.48
2019-03-22T14:55:48.875Z,101135.02
2019-03-22T14:58:16.243Z,101131.10
2019-03-22T15:00:43.489Z,101125.92
2019-03-22T15:03:10.472Z,101125.00
2019-03-22T15:05:37.417Z,101127.14
2019-03-22T15:08:04.615Z,101122.83
2019-03-22T15:10:32.567Z,101117.69
2019-03-22T15:12:59.758Z,101115.08
2019-03-22T15:15:26.733Z,101109.47
2019-03-22T15:17:53.757Z,101107.30
2019-03-22T15:20:20.999Z,101107.72
2019-03-22T15:22:47.885Z,101107.30
2019-03-22T15:25:14.840Z,101102.62
2019-03-22T15:27:43.068Z,101106.41
2019-03-22T15:30:24.570Z,101102.16
2019-03-22T15:32:51.473Z,101102.22
2019-03-22T15:35:18.790Z,101097.97
2019-03-22T15:37:46.110Z,101095.38
2019-03-22T15:40:13.049Z,101098.30
2019-03-22T15:42:40.302Z,101101.69
2019-03-22T15:45:07.645Z,101094.77
2019-03-22T15:47:34.743Z,101092.62
2019-03-22T15:50:01.678Z,101099.05
2019-03-22T15:52:30.125Z,101093.94
2019-03-22T15:54:57.139Z,101091.05
2019-03-22T15:57:24.656Z,101094.52
2019-03-22T15:59:51.717Z,101088.88
2019-03-22T16:02:18.668Z,101088.02
2019-03-22T16:04:46.195Z,101086.27
2019-03-22T16:07:13.440Z,101085.38
2019-03-22T16:09:40.306Z,101085.44
2019-03-22T16:12:07.544Z,101085.44
2019-03-22T16:14:34.545Z,101087.19
2019-03-22T16:17:01.821Z,101084.63
2019-03-22T16:19:29.153Z,101091.05
2019-03-22T16:21:56.573Z,101088.48
2019-03-22T16:24:23.912Z,101086.69
2019-03-22T16:26:51.169Z,101082.33
2019-03-22T16:29:18.437Z,101086.62
2019-03-22T16:31:45.361Z,101082.37
2019-03-22T16:34:13.534Z,101087.13
2019-03-22T16:36:40.781Z,101085.88
2019-03-22T16:39:08.046Z,101084.23
2019-03-22T16:41:34.986Z,101082.12
2019-03-22T16:44:01.942Z,101084.30
2019-03-22T16:46:29.799Z,101080.37
2019-03-22T16:48:57.032Z,101083.37
2019-03-22T16:51:23.944Z,101082.91
2019-03-22T16:53:50.915Z,101083.73
2019-03-22T16:56:17.808Z,101082.91
2019-03-22T16:58:45.173Z,101088.08
2019-03-22T17:01:12.547Z,101086.83
2019-03-22T17:03:39.660Z,101088.08
2019-03-22T17:06:07.016Z,101095.80
2019-03-22T17:08:34.170Z,101098.44
2019-03-22T17:11:01.395Z,101098.90
2019-03-22T17:13:29.416Z,101097.69
2019-03-22T17:15:56.738Z,101095.18
2019-03-22T17:18:23.976Z,101091.86
2019-03-22T17:20:53.945Z,101095.84
2019-03-22T17:23:20.871Z,101094.63
2019-03-22T17:25:48.077Z,101093.91
2019-03-22T17:28:14.951Z,101100.33
2019-03-22T17:30:41.958Z,101093.08
2019-03-22T17:33:08.921Z,101098.42
2019-03-22T17:35:35.852Z,101104.47
2019-03-22T17:38:02.892Z,101103.12
2019-03-22T17:40:29.969Z,101099.20
2019-03-22T17:42:57.240Z,101105.23
2019-03-22T17:45:24.226Z,101108.70
2019-03-22T17:47:51.232Z,101107.44
2019-03-22T17:50:18.157Z,101106.16
2019-03-22T17:52:45.140Z,101111.45
2019-03-22T17:55:12.411Z,101109.80
2019-03-22T17:57:39.756Z,101102.58
2019-03-22T18:00:07.296Z,101115.03
2019-03-22T18:02:35.358Z,101108.27
2019-03-22T18:05:02.363Z,101116.92
2019-03-22T18:07:30.385Z,101118.60
2019-03-22T18:09:57.733Z,101112.24
2019-03-22T18:12:25.095Z,101114.44
2019-03-22T18:14:52.077Z,101115.44
2019-03-22T18:17:19.389Z,101120.63
2019-03-22T18:19:46.400Z,101116.39
2019-03-22T18:22:13.686Z,101114.38
2019-03-22T18:24:40.700Z,101115.78
2019-03-22T18:27:07.653Z,101116.69
2019-03-22T18:29:34.825Z,101120.97
2019-03-22T18:32:02.089Z,101118.42
2019-03-22T18:34:34.209Z,101131.17
2019-03-22T18:36:57.641Z,101121.02
2019-03-22T18:39:24.553Z,101121.53
2019-03-22T18:41:51.504Z,101124.09
2019-03-22T18:44:18.784Z,101126.66
2019-03-22T18:46:45.744Z,101123.64
2019-03-22T18:49:13.977Z,101123.75
2019-03-22T18:51:40.850Z,101131.02
2019-03-22T18:54:08.172Z,101128.05
2019-03-22T18:56:35.131Z,101131.95
2019-03-22T18:59:02.098Z,101127.27
2019-03-22T19:01:29.030Z,101127.33
2019-03-22T19:03:56.259Z,101129.48
2019-03-22T19:06:23.514Z,101123.92
2019-03-22T19:08:50.770Z,101122.64
2019-03-22T19:11:17.776Z,101120.08
2019-03-22T19:13:44.721Z,101126.14
2019-03-22T19:16:11.709Z,101123.66
2019-03-22T19:18:38.968Z,101126.75
2019-03-22T19:21:06.313Z,101127.24
2019-03-22T19:23:33.330Z,101121.73
2019-03-22T19:26:00.297Z,101116.66
2019-03-22T19:28:27.615Z,101123.95
2019-03-22T19:30:56.616Z,101120.62
2019-03-22T19:33:23.904Z,101115.14
2019-03-22T19:35:51.166Z,101111.45
2019-03-22T19:38:18.534Z,101112.83
2019-03-22T19:40:45.527Z,101117.55
2019-03-22T19:43:13.146Z,101108.17
2019-03-22T19:45:40.465Z,101109.50
2019-03-22T19:48:07.615Z,101103.56
2019-03-22T19:50:34.621Z,101102.34
2019-03-22T19:53:01.691Z,101101.11
2019-03-22T19:55:28.602Z,101105.35
2019-03-22T19:57:55.916Z,101104.55
2019-03-22T20:00:23.240Z,101106.27
2019-03-22T20:02:50.248Z,101103.75
2019-03-22T20:05:17.247Z,101101.19
2019-03-22T20:07:44.311Z,101103.80
2019-03-22T20:10:11.572Z,101096.16
2019-03-22T20:12:38.785Z,101091.08
2019-03-22T20:15:05.840Z,101086.00
2019-03-22T20:17:32.706Z,101087.71
2019-03-22T20:20:01.289Z,101091.98
2019-03-22T20:22:28.305Z,101090.31
2019-03-22T20:24:55.217Z,101088.16
2019-03-22T20:27:22.268Z,101086.06
2019-03-22T20:29:49.772Z,101076.28
2019-03-22T20:32:17.050Z,101075.05
2019-03-22T20:34:44.367Z,101078.95
2019-03-22T20:37:11.348Z,101081.13
2019-03-22T20:39:38.237Z,101073.52
2019-03-22T20:42:05.489Z,101074.88
2019-03-22T20:44:34.172Z,101076.19
2019-03-22T20:47:01.320Z,101071.11
2019-03-22T20:49:28.865Z,101069.41
2019-03-22T20:51:55.852Z,101071.97
2019-03-22T20:54:22.819Z,101064.31
2019-03-22T20:56:49.796Z,101068.15
2019-03-22T20:59:17.114Z,101069.03
2019-03-22T21:01:45.493Z,101060.55
2019-03-22T21:04:12.401Z,101061.00
2019-03-22T21:06:39.408Z,101051.22
2019-03-22T21:09:06.379Z,101054.67
2019-03-22T21:11:33.677Z,101053.01
2019-03-22T21:14:00.865Z,101054.36
2019-03-22T21:16:27.768Z,101053.98
2019-03-22T21:18:55.223Z,101051.05
2019-03-22T21:21:24.313Z,101048.97
2019-03-22T21:23:50.846Z,101043.91
2019-03-22T21:26:17.798Z,101043.49
2019-03-22T21:28:44.709Z,101045.64
2019-03-22T21:31:11.649Z,101043.51
2019-03-22T21:33:38.621Z,101046.09
2019-03-22T21:36:05.511Z,101041.44
2019-03-22T21:38:32.450Z,101052.58
2019-03-22T21:40:59.432Z,101046.23
2019-03-22T21:43:26.413Z,101042.06
2019-03-22T21:45:53.345Z,101041.23
2019-03-22T21:48:20.694Z,101045.52
2019-03-22T21:50:47.730Z,101038.75
2019-03-22T21:53:14.958Z,101040.45
2019-03-22T21:55:41.866Z,101043.43
2019-03-22T21:58:09.072Z,101040.48
2019-03-22T22:00:36.320Z,101042.16
2019-03-22T22:03:04.460Z,101039.58
2019-03-22T22:05:31.410Z,101042.09
2019-03-22T22:07:58.301Z,101035.70
2019-03-22T22:10:25.189Z,101036.18
2019-03-22T22:12:52.597Z,101036.19
2019-03-22T22:15:19.837Z,101034.48
2019-03-22T22:17:46.707Z,101034.13
2019-03-22T22:20:13.927Z,101034.63
2019-03-22T22:22:41.174Z,101041.49
2019-03-22T22:25:08.057Z,101041.59
2019-03-22T22:27:34.959Z,101036.48
2019-03-22T22:30:01.925Z,101034.34
2019-03-22T22:32:29.584Z,101033.06
2019-03-22T22:34:56.567Z,101033.93
2019-03-22T22:37:23.533Z,101029.67
2019-03-22T22:39:50.732Z,101031.38
2019-03-22T22:42:17.752Z,101031.78
2019-03-22T22:44:45.010Z,101031.80
2019-03-22T22:47:11.894Z,101031.84
2019-03-22T22:49:39.128Z,101032.70
2019-03-22T22:52:06.477Z,101028.87
2019-03-22T22:54:33.346Z,101027.16
2019-03-22T22:57:00.209Z,101024.61
2019-03-22T22:59:27.406Z,101020.78
2019-03-22T23:01:54.279Z,101022.94
2019-03-22T23:04:21.317Z,101028.07
2019-03-22T23:06:48.270Z,101022.14
2019-03-22T23:09:15.217Z,101015.33
2019-03-22T23:11:42.442Z,101011.09
2019-03-22T23:14:09.753Z,101012.80
2019-03-22T23:16:37.739Z,101015.38
2019-03-22T23:19:05.025Z,101008.59
2019-03-22T23:21:32.344Z,101006.48
2019-03-22T23:23:59.241Z,101007.36
2019-03-22T23:26:26.287Z,101005.23
2019-03-22T23:28:53.657Z,101008.23
2019-03-22T23:31:20.606Z,101006.95
2019-03-22T23:33:47.626Z,101006.13
2019-03-22T23:36:20.116Z,100999.74
2019-03-22T23:38:43.110Z,100998.01
2019-03-22T23:41:10.289Z,100993.81
2019-03-22T23:43:37.565Z,100995.95
2019-03-22T23:46:04.516Z,100993.00
2019-03-22T23:48:31.504Z,100991.27
2019-03-22T23:50:58.805Z,100987.47
2019-03-22T23:53:25.769Z,100990.00
2019-03-22T23:55:52.645Z,100992.55
2019-03-22T23:58:19.553Z,100983.17
